LOT23N EPKK-EPGD
Flight info
| Callsign | LOT23N |
|---|---|
| Flight time | 1h 0m |
| Altitude | 24000 |
| Route | NAVUR N744 OVBOR N133 GRUDA Z95 OSLOG |
| Aircraft | B738/M-SDE2E3FGHIRWXY/LB1 |
Departure
| Time | 2026-05-01 13:48 |
|---|---|
| Airport | Kraków John Paul II International Airport (EPKK) |
Arrival
| Time | 2026-05-01 14:48 |
|---|---|
| Airport | Gdańsk Lech Wałęsa Airport (EPGD) |
| Time | Latitude | Longitude | Altitude | Speed | Heading |
|---|---|---|---|---|---|
| 2026-05-01 13:27 | 50.07576 | 19.80097 | 773 ft | 0 kts | 348° |
| 2026-05-01 13:42 | 50.07576 | 19.80098 | 773 ft | 0 kts | 348° |
| 2026-05-01 13:42 | 50.07562 | 19.80103 | 773 ft | 2 kts | 345° |
| 2026-05-01 13:43 | 50.07550 | 19.80108 | 773 ft | 2 kts | 352° |
| 2026-05-01 13:43 | 50.07536 | 19.80102 | 773 ft | 2 kts | 36° |
| 2026-05-01 13:43 | 50.07526 | 19.80085 | 773 ft | 2 kts | 71° |
| 2026-05-01 13:43 | 50.07525 | 19.80072 | 773 ft | 0 kts | 84° |
| 2026-05-01 13:45 | 50.07525 | 19.80079 | 773 ft | 3 kts | 79° |
| 2026-05-01 13:45 | 50.07547 | 19.80229 | 772 ft | 23 kts | 78° |
| 2026-05-01 13:46 | 50.07573 | 19.80397 | 769 ft | 10 kts | 57° |
| 2026-05-01 13:46 | 50.07635 | 19.80404 | 769 ft | 9 kts | 352° |
| 2026-05-01 13:46 | 50.07707 | 19.80381 | 769 ft | 12 kts | 348° |
| 2026-05-01 13:46 | 50.07816 | 19.80345 | 769 ft | 18 kts | 348° |
| 2026-05-01 13:47 | 50.07956 | 19.80298 | 772 ft | 21 kts | 348° |
| 2026-05-01 13:47 | 50.08005 | 19.80150 | 773 ft | 15 kts | 257° |
| 2026-05-01 13:47 | 50.07937 | 19.79669 | 776 ft | 90 kts | 258° |
| 2026-05-01 13:47 | 50.07739 | 19.78272 | 824 ft | 167 kts | 257° |
| 2026-05-01 13:48 | 50.07475 | 19.76542 | 1742 ft | 169 kts | 256° |
| 2026-05-01 13:48 | 50.07217 | 19.74802 | 2682 ft | 172 kts | 258° |
| 2026-05-01 13:48 | 50.06963 | 19.73004 | 3601 ft | 175 kts | 258° |
| 2026-05-01 13:48 | 50.06702 | 19.71219 | 4589 ft | 171 kts | 256° |
| 2026-05-01 13:49 | 50.06396 | 19.69371 | 5161 ft | 195 kts | 257° |
| 2026-05-01 13:49 | 50.06328 | 19.67022 | 5338 ft | 247 kts | 283° |
| 2026-05-01 13:49 | 50.07103 | 19.64592 | 6195 ft | 267 kts | 310° |
| 2026-05-01 13:49 | 50.08623 | 19.62918 | 7382 ft | 274 kts | 339° |
| 2026-05-01 13:50 | 50.10461 | 19.62505 | 8549 ft | 280 kts | 5° |
| 2026-05-01 13:50 | 50.12287 | 19.63430 | 9690 ft | 285 kts | 32° |
| 2026-05-01 13:50 | 50.13835 | 19.65311 | 10844 ft | 288 kts | 36° |
| 2026-05-01 13:50 | 50.15670 | 19.66517 | 11862 ft | 294 kts | 13° |
| 2026-05-01 13:51 | 50.17681 | 19.67136 | 12937 ft | 298 kts | 11° |
| 2026-05-01 13:51 | 50.19728 | 19.67715 | 13938 ft | 304 kts | 10° |
| 2026-05-01 13:51 | 50.21792 | 19.68297 | 14914 ft | 308 kts | 10° |
| 2026-05-01 13:51 | 50.23880 | 19.68886 | 15848 ft | 313 kts | 10° |
| 2026-05-01 13:52 | 50.26051 | 19.69499 | 16641 ft | 323 kts | 10° |
| 2026-05-01 13:52 | 50.28351 | 19.70150 | 16732 ft | 355 kts | 10° |
| 2026-05-01 13:52 | 50.30869 | 19.70862 | 16821 ft | 385 kts | 10° |
| 2026-05-01 13:52 | 50.33590 | 19.71633 | 16878 ft | 414 kts | 10° |
| 2026-05-01 13:53 | 50.36533 | 19.72468 | 16906 ft | 443 kts | 10° |
| 2026-05-01 13:53 | 50.42349 | 19.74121 | 16615 ft | 391 kts | 10° |
| 2026-05-01 13:53 | 50.44921 | 19.74853 | 16818 ft | 370 kts | 10° |
| 2026-05-01 13:54 | 50.47219 | 19.75508 | 19174 ft | 321 kts | 10° |
| 2026-05-01 13:54 | 50.49417 | 19.76135 | 19688 ft | 336 kts | 10° |
| 2026-05-01 13:54 | 50.51709 | 19.76789 | 20558 ft | 337 kts | 10° |
| 2026-05-01 13:54 | 50.54026 | 19.77451 | 21291 ft | 342 kts | 10° |
| 2026-05-01 13:55 | 50.56338 | 19.78113 | 22068 ft | 345 kts | 10° |
| 2026-05-01 13:55 | 50.57858 | 19.78548 | 22511 ft | 347 kts | 10° |
| 2026-05-01 13:55 | 50.59958 | 19.79150 | 23059 ft | 351 kts | 10° |
| 2026-05-01 13:55 | 50.62363 | 19.79840 | 23604 ft | 345 kts | 10° |
| 2026-05-01 13:56 | 50.64708 | 19.80513 | 23632 ft | 343 kts | 10° |
| 2026-05-01 13:56 | 50.67063 | 19.81190 | 23692 ft | 351 kts | 10° |
| 2026-05-01 13:56 | 50.69477 | 19.81885 | 23698 ft | 356 kts | 10° |
| 2026-05-01 13:56 | 50.71886 | 19.82578 | 23697 ft | 356 kts | 10° |
| 2026-05-01 13:57 | 50.74333 | 19.83284 | 23696 ft | 355 kts | 10° |
| 2026-05-01 13:57 | 50.75945 | 19.83749 | 23697 ft | 354 kts | 10° |
| 2026-05-01 13:57 | 50.79155 | 19.84677 | 23698 ft | 354 kts | 10° |
| 2026-05-01 13:57 | 50.81560 | 19.85372 | 23698 ft | 354 kts | 10° |
| 2026-05-01 13:58 | 50.83969 | 19.86070 | 23698 ft | 354 kts | 10° |
| 2026-05-01 13:58 | 50.86394 | 19.86773 | 23698 ft | 354 kts | 10° |
| 2026-05-01 13:58 | 50.88802 | 19.87471 | 23698 ft | 354 kts | 10° |
| 2026-05-01 13:58 | 50.91208 | 19.88170 | 23698 ft | 354 kts | 10° |
| 2026-05-01 13:59 | 50.93628 | 19.88874 | 23698 ft | 354 kts | 10° |
| 2026-05-01 13:59 | 50.96059 | 19.89581 | 23698 ft | 354 kts | 10° |
| 2026-05-01 13:59 | 50.98462 | 19.90282 | 23698 ft | 354 kts | 10° |
| 2026-05-01 13:59 | 51.00819 | 19.91281 | 23645 ft | 355 kts | 25° |
| 2026-05-01 14:00 | 51.02928 | 19.93289 | 23709 ft | 353 kts | 34° |
| 2026-05-01 14:00 | 51.04932 | 19.95504 | 23691 ft | 355 kts | 36° |
| 2026-05-01 14:00 | 51.06928 | 19.97811 | 23699 ft | 355 kts | 36° |
| 2026-05-01 14:00 | 51.09069 | 19.99710 | 23658 ft | 354 kts | 18° |
| 2026-05-01 14:01 | 51.11453 | 20.00254 | 23723 ft | 360 kts | 358° |
| 2026-05-01 14:01 | 51.13976 | 19.99704 | 23747 ft | 381 kts | 347° |
| 2026-05-01 14:01 | 51.16586 | 19.98622 | 23812 ft | 400 kts | 344° |
| 2026-05-01 14:01 | 51.19321 | 19.97304 | 23832 ft | 420 kts | 342° |
| 2026-05-01 14:02 | 51.22119 | 19.95892 | 23788 ft | 426 kts | 342° |
| 2026-05-01 14:02 | 51.24924 | 19.94449 | 23738 ft | 423 kts | 342° |
| 2026-05-01 14:02 | 51.27710 | 19.93009 | 23698 ft | 421 kts | 342° |
| 2026-05-01 14:02 | 51.30498 | 19.91564 | 23703 ft | 420 kts | 342° |
| 2026-05-01 14:03 | 51.33236 | 19.90143 | 23697 ft | 421 kts | 342° |
| 2026-05-01 14:03 | 51.36034 | 19.88688 | 23699 ft | 421 kts | 342° |
| 2026-05-01 14:03 | 51.38794 | 19.87251 | 23698 ft | 421 kts | 342° |
| 2026-05-01 14:03 | 51.41569 | 19.85805 | 23697 ft | 421 kts | 342° |
| 2026-05-01 14:04 | 51.44369 | 19.84344 | 23698 ft | 421 kts | 342° |
| 2026-05-01 14:04 | 51.47136 | 19.82898 | 23698 ft | 421 kts | 342° |
| 2026-05-01 14:04 | 51.49916 | 19.81443 | 23698 ft | 421 kts | 342° |
| 2026-05-01 14:04 | 51.51766 | 19.80475 | 23698 ft | 421 kts | 342° |
| 2026-05-01 14:05 | 51.55475 | 19.78535 | 23698 ft | 421 kts | 342° |
| 2026-05-01 14:05 | 51.58228 | 19.77095 | 23698 ft | 421 kts | 342° |
| 2026-05-01 14:05 | 51.61016 | 19.75633 | 23698 ft | 421 kts | 342° |
| 2026-05-01 14:05 | 51.63785 | 19.74180 | 23698 ft | 421 kts | 342° |
| 2026-05-01 14:06 | 51.66560 | 19.72723 | 23698 ft | 421 kts | 342° |
| 2026-05-01 14:06 | 51.69316 | 19.71272 | 23698 ft | 421 kts | 342° |
| 2026-05-01 14:06 | 51.72097 | 19.69802 | 23698 ft | 421 kts | 342° |
| 2026-05-01 14:06 | 51.74868 | 19.68334 | 23698 ft | 421 kts | 342° |
| 2026-05-01 14:07 | 51.77650 | 19.66859 | 23698 ft | 421 kts | 342° |
| 2026-05-01 14:07 | 51.80449 | 19.65402 | 23696 ft | 421 kts | 343° |
| 2026-05-01 14:07 | 51.83228 | 19.64037 | 23699 ft | 421 kts | 343° |
| 2026-05-01 14:08 | 51.88820 | 19.61299 | 23697 ft | 421 kts | 343° |
| 2026-05-01 14:08 | 51.91593 | 19.59939 | 23698 ft | 421 kts | 343° |
| 2026-05-01 14:08 | 51.94404 | 19.58560 | 23698 ft | 421 kts | 343° |
| 2026-05-01 14:08 | 51.97192 | 19.57190 | 23698 ft | 421 kts | 343° |
| 2026-05-01 14:09 | 51.99990 | 19.55813 | 23698 ft | 421 kts | 343° |
| 2026-05-01 14:09 | 52.02768 | 19.54445 | 23698 ft | 421 kts | 343° |
| 2026-05-01 14:09 | 52.05583 | 19.53056 | 23698 ft | 421 kts | 343° |
| 2026-05-01 14:09 | 52.08345 | 19.51691 | 23698 ft | 421 kts | 343° |
| 2026-05-01 14:10 | 52.11155 | 19.50302 | 23698 ft | 421 kts | 343° |
| 2026-05-01 14:10 | 52.13944 | 19.48921 | 23698 ft | 421 kts | 343° |
| 2026-05-01 14:10 | 52.16727 | 19.47542 | 23698 ft | 421 kts | 343° |
| 2026-05-01 14:10 | 52.19537 | 19.46147 | 23698 ft | 421 kts | 343° |
| 2026-05-01 14:11 | 52.22328 | 19.44759 | 23698 ft | 421 kts | 343° |
| 2026-05-01 14:11 | 52.27897 | 19.41986 | 23698 ft | 421 kts | 343° |
| 2026-05-01 14:11 | 52.30689 | 19.40593 | 23698 ft | 421 kts | 343° |
| 2026-05-01 14:12 | 52.33474 | 19.39201 | 23698 ft | 421 kts | 343° |
| 2026-05-01 14:12 | 52.36293 | 19.37790 | 23698 ft | 421 kts | 343° |
| 2026-05-01 14:12 | 52.39080 | 19.36394 | 23698 ft | 421 kts | 343° |
| 2026-05-01 14:12 | 52.41843 | 19.35008 | 23698 ft | 421 kts | 343° |
| 2026-05-01 14:13 | 52.44659 | 19.33593 | 23698 ft | 421 kts | 342° |
| 2026-05-01 14:13 | 52.46497 | 19.32669 | 23698 ft | 421 kts | 342° |
| 2026-05-01 14:13 | 52.50251 | 19.30779 | 23698 ft | 421 kts | 342° |
| 2026-05-01 14:13 | 52.53029 | 19.29377 | 23698 ft | 421 kts | 342° |
| 2026-05-01 14:14 | 52.55809 | 19.27973 | 23698 ft | 421 kts | 342° |
| 2026-05-01 14:14 | 52.58604 | 19.26560 | 23698 ft | 421 kts | 342° |
| 2026-05-01 14:14 | 52.61403 | 19.25142 | 23698 ft | 421 kts | 342° |
| 2026-05-01 14:14 | 52.64174 | 19.23737 | 23698 ft | 421 kts | 342° |
| 2026-05-01 14:15 | 52.66952 | 19.22326 | 23698 ft | 421 kts | 342° |
| 2026-05-01 14:15 | 52.69748 | 19.20904 | 23698 ft | 421 kts | 342° |
| 2026-05-01 14:15 | 52.72535 | 19.19485 | 23698 ft | 421 kts | 342° |
| 2026-05-01 14:15 | 52.75327 | 19.18061 | 23698 ft | 421 kts | 342° |
| 2026-05-01 14:16 | 52.78110 | 19.16641 | 23698 ft | 421 kts | 342° |
| 2026-05-01 14:16 | 52.80933 | 19.15197 | 23698 ft | 421 kts | 342° |
| 2026-05-01 14:16 | 52.83705 | 19.13778 | 23698 ft | 421 kts | 342° |
| 2026-05-01 14:16 | 52.86494 | 19.12348 | 23698 ft | 421 kts | 342° |
| 2026-05-01 14:17 | 52.89298 | 19.10909 | 23698 ft | 421 kts | 342° |
| 2026-05-01 14:17 | 52.92059 | 19.09490 | 23698 ft | 421 kts | 342° |
| 2026-05-01 14:17 | 52.94868 | 19.08044 | 23698 ft | 421 kts | 342° |
| 2026-05-01 14:17 | 52.97651 | 19.06609 | 23698 ft | 421 kts | 342° |
| 2026-05-01 14:18 | 53.00426 | 19.05177 | 23698 ft | 421 kts | 342° |
| 2026-05-01 14:18 | 53.03199 | 19.03744 | 23685 ft | 414 kts | 342° |
| 2026-05-01 14:18 | 53.05920 | 19.02336 | 23230 ft | 406 kts | 342° |
| 2026-05-01 14:18 | 53.07667 | 19.01431 | 22990 ft | 400 kts | 342° |
| 2026-05-01 14:19 | 53.11140 | 18.99630 | 22401 ft | 390 kts | 342° |
| 2026-05-01 14:19 | 53.13683 | 18.98309 | 21977 ft | 383 kts | 342° |
| 2026-05-01 14:19 | 53.16227 | 18.96987 | 21550 ft | 377 kts | 342° |
| 2026-05-01 14:19 | 53.18666 | 18.95718 | 21148 ft | 370 kts | 342° |
| 2026-05-01 14:20 | 53.21115 | 18.94440 | 20715 ft | 365 kts | 342° |
| 2026-05-01 14:20 | 53.25887 | 18.91947 | 19829 ft | 356 kts | 342° |
| 2026-05-01 14:20 | 53.28225 | 18.90723 | 19412 ft | 352 kts | 342° |
| 2026-05-01 14:21 | 53.30530 | 18.89515 | 19011 ft | 347 kts | 342° |
| 2026-05-01 14:21 | 53.32827 | 18.88310 | 18609 ft | 343 kts | 342° |
| 2026-05-01 14:21 | 53.35060 | 18.87137 | 18230 ft | 338 kts | 342° |
| 2026-05-01 14:22 | 53.39476 | 18.84814 | 17501 ft | 329 kts | 342° |
| 2026-05-01 14:22 | 53.41631 | 18.83679 | 17157 ft | 324 kts | 342° |
| 2026-05-01 14:22 | 53.43758 | 18.82557 | 16825 ft | 319 kts | 342° |
| 2026-05-01 14:22 | 53.45835 | 18.81460 | 16502 ft | 315 kts | 342° |
| 2026-05-01 14:23 | 53.47929 | 18.80353 | 16192 ft | 310 kts | 342° |
| 2026-05-01 14:23 | 53.49945 | 18.79286 | 15891 ft | 305 kts | 342° |
| 2026-05-01 14:23 | 53.51931 | 18.78342 | 15551 ft | 302 kts | 352° |
| 2026-05-01 14:23 | 53.53999 | 18.78001 | 15209 ft | 299 kts | 355° |
| 2026-05-01 14:24 | 53.56055 | 18.77727 | 14886 ft | 296 kts | 356° |
| 2026-05-01 14:24 | 53.58109 | 18.77475 | 14569 ft | 294 kts | 356° |
| 2026-05-01 14:24 | 53.60127 | 18.77237 | 14258 ft | 293 kts | 356° |
| 2026-05-01 14:24 | 53.62140 | 18.77004 | 13948 ft | 292 kts | 356° |
| 2026-05-01 14:25 | 53.64150 | 18.76773 | 13635 ft | 291 kts | 356° |
| 2026-05-01 14:25 | 53.66162 | 18.76542 | 13321 ft | 290 kts | 356° |
| 2026-05-01 14:25 | 53.68170 | 18.76313 | 13005 ft | 289 kts | 356° |
| 2026-05-01 14:25 | 53.70168 | 18.76084 | 12691 ft | 287 kts | 356° |
| 2026-05-01 14:26 | 53.72146 | 18.75858 | 12379 ft | 285 kts | 356° |
| 2026-05-01 14:26 | 53.76032 | 18.75049 | 11828 ft | 280 kts | 336° |
| 2026-05-01 14:26 | 53.77663 | 18.73258 | 11712 ft | 278 kts | 322° |
| 2026-05-01 14:27 | 53.79153 | 18.71226 | 11625 ft | 281 kts | 320° |
| 2026-05-01 14:27 | 53.80640 | 18.69080 | 11528 ft | 282 kts | 319° |
| 2026-05-01 14:27 | 53.81959 | 18.67125 | 11437 ft | 282 kts | 319° |
| 2026-05-01 14:28 | 53.84867 | 18.62740 | 11239 ft | 281 kts | 318° |
| 2026-05-01 14:28 | 53.86311 | 18.60546 | 11143 ft | 280 kts | 318° |
| 2026-05-01 14:28 | 53.87752 | 18.58349 | 11048 ft | 280 kts | 318° |
| 2026-05-01 14:28 | 53.89202 | 18.56135 | 10954 ft | 279 kts | 318° |
| 2026-05-01 14:29 | 53.90640 | 18.53937 | 10861 ft | 279 kts | 318° |
| 2026-05-01 14:29 | 53.92066 | 18.51753 | 10770 ft | 279 kts | 318° |
| 2026-05-01 14:30 | 53.96373 | 18.45147 | 10503 ft | 277 kts | 318° |
| 2026-05-01 14:30 | 53.97798 | 18.42992 | 10370 ft | 279 kts | 323° |
| 2026-05-01 14:30 | 53.99479 | 18.41300 | 10063 ft | 279 kts | 333° |
| 2026-05-01 14:31 | 54.02922 | 18.38377 | 9474 ft | 274 kts | 334° |
| 2026-05-01 14:31 | 54.04573 | 18.36990 | 9190 ft | 272 kts | 334° |
| 2026-05-01 14:31 | 54.06269 | 18.35565 | 8900 ft | 270 kts | 334° |
| 2026-05-01 14:31 | 54.07937 | 18.34162 | 8616 ft | 269 kts | 333° |
| 2026-05-01 14:32 | 54.09616 | 18.32748 | 8328 ft | 269 kts | 333° |
| 2026-05-01 14:32 | 54.11275 | 18.31350 | 8042 ft | 268 kts | 333° |
| 2026-05-01 14:32 | 54.12958 | 18.29931 | 7749 ft | 267 kts | 333° |
| 2026-05-01 14:32 | 54.14608 | 18.28537 | 7460 ft | 265 kts | 333° |
| 2026-05-01 14:33 | 54.16257 | 18.27144 | 7171 ft | 264 kts | 333° |
| 2026-05-01 14:33 | 54.17892 | 18.25761 | 6883 ft | 263 kts | 333° |
| 2026-05-01 14:33 | 54.19494 | 18.24404 | 6737 ft | 255 kts | 333° |
| 2026-05-01 14:33 | 54.21064 | 18.23074 | 6697 ft | 244 kts | 333° |
| 2026-05-01 14:34 | 54.22531 | 18.21831 | 6660 ft | 236 kts | 333° |
| 2026-05-01 14:34 | 54.23999 | 18.20586 | 6670 ft | 237 kts | 333° |
| 2026-05-01 14:34 | 54.25519 | 18.19393 | 6674 ft | 241 kts | 345° |
| 2026-05-01 14:34 | 54.27166 | 18.19314 | 6651 ft | 241 kts | 11° |
| 2026-05-01 14:35 | 54.28752 | 18.20149 | 6688 ft | 241 kts | 20° |
| 2026-05-01 14:35 | 54.30318 | 18.21204 | 6692 ft | 241 kts | 22° |
| 2026-05-01 14:35 | 54.31887 | 18.22149 | 6671 ft | 241 kts | 7° |
| 2026-05-01 14:35 | 54.33531 | 18.21770 | 6662 ft | 240 kts | 335° |
| 2026-05-01 14:36 | 54.34858 | 18.20102 | 6704 ft | 240 kts | 311° |
| 2026-05-01 14:36 | 54.35755 | 18.17687 | 6719 ft | 241 kts | 296° |
| 2026-05-01 14:36 | 54.36451 | 18.15065 | 6705 ft | 242 kts | 293° |
| 2026-05-01 14:36 | 54.37106 | 18.12424 | 6698 ft | 241 kts | 292° |
| 2026-05-01 14:37 | 54.37754 | 18.09764 | 6696 ft | 240 kts | 292° |
| 2026-05-01 14:37 | 54.38397 | 18.07113 | 6697 ft | 241 kts | 292° |
| 2026-05-01 14:37 | 54.39034 | 18.04478 | 6698 ft | 241 kts | 292° |
| 2026-05-01 14:37 | 54.39675 | 18.01823 | 6698 ft | 241 kts | 292° |
| 2026-05-01 14:38 | 54.40315 | 17.99173 | 6698 ft | 241 kts | 292° |
| 2026-05-01 14:38 | 54.40946 | 17.96553 | 6681 ft | 234 kts | 292° |
| 2026-05-01 14:38 | 54.41560 | 17.94005 | 6674 ft | 227 kts | 292° |
| 2026-05-01 14:38 | 54.42155 | 17.91530 | 6688 ft | 227 kts | 292° |
| 2026-05-01 14:39 | 54.42775 | 17.88984 | 6685 ft | 230 kts | 297° |
| 2026-05-01 14:39 | 54.43832 | 17.86989 | 6581 ft | 231 kts | 330° |
| 2026-05-01 14:39 | 54.45359 | 17.86271 | 6561 ft | 229 kts | 0° |
| 2026-05-01 14:39 | 54.46927 | 17.86743 | 6539 ft | 229 kts | 18° |
| 2026-05-01 14:40 | 54.48415 | 17.87660 | 6474 ft | 230 kts | 21° |
| 2026-05-01 14:40 | 54.49766 | 17.89123 | 6215 ft | 233 kts | 50° |
| 2026-05-01 14:40 | 54.50447 | 17.91596 | 6000 ft | 229 kts | 82° |
| 2026-05-01 14:40 | 54.50336 | 17.94261 | 5800 ft | 224 kts | 105° |
| 2026-05-01 14:41 | 54.49853 | 17.96764 | 5680 ft | 221 kts | 110° |
| 2026-05-01 14:41 | 54.49283 | 17.99273 | 5437 ft | 226 kts | 112° |
| 2026-05-01 14:41 | 54.48695 | 18.01751 | 5145 ft | 224 kts | 112° |
| 2026-05-01 14:41 | 54.48125 | 18.04122 | 4989 ft | 205 kts | 112° |
| 2026-05-01 14:42 | 54.47602 | 18.06286 | 4768 ft | 187 kts | 112° |
| 2026-05-01 14:42 | 54.47120 | 18.08281 | 4528 ft | 176 kts | 112° |
| 2026-05-01 14:42 | 54.46651 | 18.10219 | 4348 ft | 175 kts | 112° |
| 2026-05-01 14:42 | 54.46178 | 18.12168 | 4209 ft | 178 kts | 112° |
| 2026-05-01 14:43 | 54.45703 | 18.14125 | 4065 ft | 179 kts | 112° |
| 2026-05-01 14:43 | 54.45221 | 18.16115 | 3914 ft | 179 kts | 112° |
| 2026-05-01 14:43 | 54.44748 | 18.18067 | 3728 ft | 179 kts | 112° |
| 2026-05-01 14:43 | 54.44273 | 18.20032 | 3585 ft | 177 kts | 112° |
| 2026-05-01 14:44 | 54.43799 | 18.21979 | 3461 ft | 177 kts | 112° |
| 2026-05-01 14:44 | 54.42853 | 18.25872 | 3181 ft | 173 kts | 112° |
| 2026-05-01 14:44 | 54.42419 | 18.27701 | 2961 ft | 156 kts | 112° |
| 2026-05-01 14:45 | 54.42011 | 18.29347 | 2665 ft | 147 kts | 112° |
| 2026-05-01 14:45 | 54.41321 | 18.32144 | 2151 ft | 146 kts | 112° |
| 2026-05-01 14:45 | 54.40927 | 18.33748 | 1911 ft | 147 kts | 112° |
| 2026-05-01 14:46 | 54.40532 | 18.35356 | 1680 ft | 147 kts | 112° |
| 2026-05-01 14:46 | 54.39738 | 18.38593 | 1307 ft | 146 kts | 112° |
| 2026-05-01 14:46 | 54.39344 | 18.40206 | 1162 ft | 146 kts | 112° |
| 2026-05-01 14:47 | 54.38953 | 18.41813 | 958 ft | 143 kts | 112° |
| 2026-05-01 14:47 | 54.38578 | 18.43310 | 736 ft | 134 kts | 112° |
| 2026-05-01 14:47 | 54.38207 | 18.44796 | 538 ft | 138 kts | 111° |
| 2026-05-01 14:48 | 54.37554 | 18.47439 | 451 ft | 77 kts | 111° |
| 2026-05-01 14:48 | 54.37405 | 18.48043 | 465 ft | 37 kts | 112° |
| 2026-05-01 14:48 | 54.37309 | 18.48577 | 479 ft | 8 kts | 44° |
| 2026-05-01 14:49 | 54.37447 | 18.48592 | 479 ft | 10 kts | 296° |
| 2026-05-01 14:49 | 54.37527 | 18.48273 | 470 ft | 19 kts | 292° |
| 2026-05-01 14:50 | 54.37594 | 18.48002 | 464 ft | 17 kts | 292° |
| 2026-05-01 14:50 | 54.37718 | 18.47495 | 452 ft | 20 kts | 293° |
| 2026-05-01 14:51 | 54.37772 | 18.47281 | 451 ft | 17 kts | 292° |
| 2026-05-01 14:51 | 54.37879 | 18.46959 | 449 ft | 9 kts | 353° |
| 2026-05-01 14:52 | 54.37930 | 18.46638 | 448 ft | 19 kts | 292° |
| 2026-05-01 14:52 | 54.37965 | 18.46569 | 448 ft | 7 kts | 9° |
| 2026-05-01 14:52 | 54.38078 | 18.46586 | 449 ft | 2 kts | 14° |
| 2026-05-01 14:53 | 54.38107 | 18.46608 | 450 ft | 3 kts | 24° |
| 2026-05-01 14:53 | 54.38114 | 18.46614 | 450 ft | 0 kts | 24° |